Time;durP1;ratioP1;P1;durP2;ratioP2;P2;SDS_P1;SDS_P2;PMS_P1;PMS_P2;Temp;Humidity;BMP_temperature;BMP_pressure;BME280_temperature;BME280_humidity;BME280_pressure;Samples;Min_cycle;Max_cycle;Signal;HPM_P1;HPM_P2
2021/06/30 00:00:29;;;;;;;0.60;0.38;;;;;;;11.32;100.00;92901.69;2098107;28;20036;-86
2021/06/30 00:01:30;;;;;;;0.20;0.20;;;;;;;11.34;100.00;92904.69;2081622;28;20414;-86
2021/06/30 00:02:30;;;;;;;0.15;0.15;;;;;;;11.46;100.00;92903.22;2089661;28;20029;-85
2021/06/30 00:03:31;;;;;;;1.25;0.20;;;;;;;11.18;100.00;92910.09;2089730;28;20055;-86
2021/06/30 00:04:32;;;;;;;0.85;0.30;;;;;;;11.15;100.00;92908.28;2097691;28;20063;-86
2021/06/30 00:05:33;;;;;;;0.35;0.35;;;;;;;11.19;100.00;92903.56;2087554;28;20071;-84
2021/06/30 00:06:33;;;;;;;0.85;0.30;;;;;;;11.27;99.24;92905.63;2097809;28;20035;-86
2021/06/30 00:07:34;;;;;;;0.35;0.30;;;;;;;11.31;100.00;92903.63;2097958;28;20062;-86
2021/06/30 00:08:35;;;;;;;0.15;0.15;;;;;;;11.27;98.68;92894.19;2106284;28;20031;-86
2021/06/30 00:09:35;;;;;;;1.05;0.40;;;;;;;11.12;100.00;92893.09;2106479;28;20035;-86
2021/06/30 00:10:37;;;;;;;0.20;0.20;;;;;;;11.13;100.00;92889.22;2097485;28;20097;-86
2021/06/30 00:11:38;;;;;;;0.20;0.20;;;;;;;11.15;100.00;92890.31;2089896;28;20032;-87
2021/06/30 00:12:38;;;;;;;1.95;0.40;;;;;;;11.14;100.00;92888.06;2089651;28;20107;-86
2021/06/30 00:13:39;;;;;;;0.20;0.20;;;;;;;11.12;100.00;92888.50;2097947;28;20060;-86
2021/06/30 00:14:40;;;;;;;0.20;0.20;;;;;;;11.06;100.00;92876.78;2106380;28;20131;-86
2021/06/30 00:15:42;;;;;;;0.40;0.40;;;;;;;11.03;100.00;92885.69;2089381;28;20074;-86
2021/06/30 00:16:44;;;;;;;0.17;0.17;;;;;;;10.99;100.00;92874.34;2089856;28;20112;-86
2021/06/30 00:17:45;;;;;;;0.40;0.20;;;;;;;10.99;100.00;92860.97;2081542;28;20051;-86
2021/06/30 00:18:46;;;;;;;2.47;0.50;;;;;;;10.98;100.00;92852.19;2097946;28;20024;-86
2021/06/30 00:19:47;;;;;;;3.30;0.40;;;;;;;10.98;100.00;92841.50;2104321;28;20020;-86
2021/06/30 00:20:49;;;;;;;0.57;0.20;;;;;;;10.91;100.00;92844.34;2089427;28;20464;-86
2021/06/30 00:21:50;;;;;;;1.75;0.20;;;;;;;10.92;100.00;92842.41;2089793;28;20028;-86
2021/06/30 00:22:51;;;;;;;0.32;0.20;;;;;;;10.85;100.00;92848.72;2089092;28;21125;-86
2021/06/30 00:23:53;;;;;;;0.10;0.10;;;;;;;10.92;100.00;92845.84;2089614;28;20460;-87
2021/06/30 00:24:53;;;;;;;0.20;0.20;;;;;;;10.98;100.00;92864.81;2081523;28;20025;-86
2021/06/30 00:25:54;;;;;;;0.10;0.10;;;;;;;11.01;100.00;92867.38;2089244;28;20033;-86
2021/06/30 00:26:55;;;;;;;0.20;0.20;;;;;;;10.97;100.00;92860.63;2097601;28;20424;-87
2021/06/30 00:27:56;;;;;;;0.75;0.22;;;;;;;11.00;100.00;92857.84;2105620;28;20020;-86
2021/06/30 00:28:56;;;;;;;0.30;0.30;;;;;;;10.96;100.00;92865.22;2097652;28;20105;-86
2021/06/30 00:29:57;;;;;;;1.08;0.17;;;;;;;10.99;100.00;92874.34;2089700;28;20550;-86
2021/06/30 00:30:58;;;;;;;0.22;0.22;;;;;;;10.97;100.00;92890.78;2089649;28;20021;-86
2021/06/30 00:31:59;;;;;;;1.35;0.55;;;;;;;10.90;100.00;92900.94;2097883;28;20028;-85
2021/06/30 00:33:00;;;;;;;1.25;0.28;;;;;;;10.84;100.00;92896.09;2097943;28;20510;-85
2021/06/30 00:34:03;;;;;;;0.63;0.22;;;;;;;10.80;100.00;92897.38;2089476;28;20021;-86
2021/06/30 00:35:05;;;;;;;0.35;0.20;;;;;;;10.85;100.00;92894.19;2097729;28;20020;-86
2021/06/30 00:36:06;;;;;;;0.10;0.10;;;;;;;10.86;100.00;92887.66;2095625;28;20071;-87
2021/06/30 00:37:06;;;;;;;0.38;0.20;;;;;;;10.86;100.00;92882.31;2105958;28;20024;-86
2021/06/30 00:38:07;;;;;;;0.20;0.20;;;;;;;10.85;100.00;92880.81;2098055;28;20024;-86
2021/06/30 00:39:08;;;;;;;0.20;0.20;;;;;;;10.88;100.00;92889.91;2089478;28;20520;-86
2021/06/30 00:40:10;;;;;;;0.20;0.20;;;;;;;10.89;100.00;92897.50;2089038;28;20036;-87
2021/06/30 00:41:10;;;;;;;0.38;0.22;;;;;;;10.91;100.00;92897.09;2096018;28;20115;-87
2021/06/30 00:42:11;;;;;;;0.13;0.13;;;;;;;10.95;100.00;92905.75;2097635;28;20020;-87
2021/06/30 00:43:12;;;;;;;0.10;0.10;;;;;;;10.86;100.00;92902.94;2088959;28;20076;-87
2021/06/30 00:44:13;;;;;;;0.57;0.30;;;;;;;10.81;100.00;92922.94;2081222;28;20025;-86
2021/06/30 00:45:19;;;;;;;0.20;0.17;;;;;;;10.75;100.00;92924.59;2091100;28;20029;-87
2021/06/30 00:46:33;;;;;;;0.98;0.20;;;;;;;10.76;100.00;92915.44;2095734;28;20036;-87
2021/06/30 00:47:34;;;;;;;0.45;0.20;;;;;;;10.75;100.00;92908.56;2095974;28;20525;-86
2021/06/30 00:48:35;;;;;;;0.20;0.17;;;;;;;10.69;100.00;92907.59;2085450;28;20048;-86
2021/06/30 00:49:36;;;;;;;0.20;0.20;;;;;;;10.73;100.00;92910.91;2091786;28;20035;-85
2021/06/30 00:50:37;;;;;;;1.70;0.25;;;;;;;10.75;100.00;92914.66;2097588;28;20020;-87
2021/06/30 00:51:38;;;;;;;1.65;0.25;;;;;;;10.75;100.00;92929.94;2089406;28;20025;-86
2021/06/30 00:52:38;;;;;;;0.43;0.28;;;;;;;10.74;100.00;92933.81;2089896;28;20024;-87
2021/06/30 00:53:39;;;;;;;0.20;0.20;;;;;;;10.72;100.00;92936.91;2092210;28;20029;-85
2021/06/30 00:54:40;;;;;;;0.40;0.28;;;;;;;10.73;100.00;92929.63;2091605;28;20035;-87
2021/06/30 00:55:41;;;;;;;0.10;0.10;;;;;;;10.72;100.00;92936.16;2080471;28;20021;-86
2021/06/30 00:56:41;;;;;;;0.85;0.20;;;;;;;10.76;100.00;92926.13;2072788;28;20105;-86
2021/06/30 00:57:43;;;;;;;1.65;0.20;;;;;;;10.75;100.00;92929.94;2074915;28;20520;-87
2021/06/30 00:58:44;;;;;;;0.10;0.10;;;;;;;10.67;100.00;92917.94;2084739;28;20560;-86
2021/06/30 00:59:45;;;;;;;0.52;0.17;;;;;;;10.57;100.00;92928.47;2091617;28;20029;-86
2021/06/30 01:00:48;;;;;;;0.90;0.22;;;;;;;10.62;100.00;92923.78;2093767;28;20025;-87
2021/06/30 01:01:49;;;;;;;0.32;0.20;;;;;;;10.64;100.00;92919.53;2093352;28;20097;-86
2021/06/30 01:02:50;;;;;;;0.15;0.10;;;;;;;10.68;100.00;92922.13;2083065;28;20029;-86
2021/06/30 01:03:52;;;;;;;0.38;0.10;;;;;;;10.70;100.00;92917.84;2089822;28;20098;-86
2021/06/30 01:04:53;;;;;;;0.32;0.20;;;;;;;10.71;100.00;92910.56;2091256;28;20020;-86
2021/06/30 01:05:54;;;;;;;0.10;0.10;;;;;;;10.58;100.00;92910.53;2090964;28;20368;-86
2021/06/30 01:06:55;;;;;;;0.20;0.17;;;;;;;10.66;100.00;92905.75;2103450;28;20075;-86
2021/06/30 01:07:56;;;;;;;2.55;0.30;;;;;;;10.66;100.00;92900.41;2106861;28;20106;-87
2021/06/30 01:09:03;;;;;;;0.10;0.10;;;;;;;10.70;100.00;92911.75;2097744;28;20024;-86
2021/06/30 01:10:04;;;;;;;0.17;0.17;;;;;;;10.70;100.00;92911.75;2082282;28;20025;-86
2021/06/30 01:11:05;;;;;;;0.25;0.10;;;;;;;10.58;100.00;92913.22;2081228;28;20030;-87
2021/06/30 01:12:06;;;;;;;1.00;0.10;;;;;;;10.54;100.00;92915.22;2081449;28;20021;-87
2021/06/30 01:13:06;;;;;;;0.20;0.20;;;;;;;10.68;100.00;92914.09;2081553;28;20485;-86
2021/06/30 01:14:07;;;;;;;0.10;0.10;;;;;;;10.58;100.00;92907.88;2081177;28;20116;-87
2021/06/30 01:15:10;;;;;;;0.10;0.10;;;;;;;10.53;100.00;92903.75;2084246;28;20699;-87
2021/06/30 01:16:11;;;;;;;2.17;0.20;;;;;;;10.43;100.00;92901.34;2086063;28;20096;-86
2021/06/30 01:17:12;;;;;;;1.55;0.10;;;;;;;10.53;100.00;92903.75;2093242;28;20031;-86
2021/06/30 01:18:13;;;;;;;0.30;0.10;;;;;;;10.50;100.00;92909.97;2102277;28;20028;-87
2021/06/30 01:19:18;;;;;;;0.75;0.10;;;;;;;10.45;100.00;92909.72;2093506;28;20497;-87
2021/06/30 01:20:19;;;;;;;0.10;0.10;;;;;;;10.40;100.00;92918.97;2085298;28;20398;-87
2021/06/30 01:21:20;;;;;;;0.57;0.20;;;;;;;10.35;100.00;92919.47;2081388;28;20257;-86
2021/06/30 01:22:24;;;;;;;0.43;0.17;;;;;;;10.32;100.00;92920.34;2089267;28;20489;-86
2021/06/30 01:23:26;;;;;;;0.10;0.10;;;;;;;10.29;100.00;92915.81;2089601;28;20650;-86
2021/06/30 01:24:27;;;;;;;0.10;0.10;;;;;;;10.22;100.00;92914.03;2097805;28;20063;-86
2021/06/30 01:25:27;;;;;;;2.38;0.22;;;;;;;10.27;100.00;92908.22;2097685;28;20025;-86
2021/06/30 01:26:28;;;;;;;2.30;0.10;;;;;;;10.26;100.00;92909.38;2097590;28;20028;-87
2021/06/30 01:27:32;;;;;;;0.20;0.10;;;;;;;10.33;100.00;92911.13;2089386;28;20075;-87
2021/06/30 01:28:33;;;;;;;0.03;0.03;;;;;;;10.36;100.00;92898.84;2073039;28;20501;-86
2021/06/30 01:29:34;;;;;;;0.80;0.10;;;;;;;10.28;100.00;92901.72;2081255;28;20402;-86
2021/06/30 01:30:35;;;;;;;1.83;0.20;;;;;;;10.22;100.00;92894.56;2106943;28;20026;-86
2021/06/30 01:31:35;;;;;;;4.18;0.22;;;;;;;10.27;100.00;92892.19;2093005;28;20025;-86
2021/06/30 01:32:36;;;;;;;0.05;0.05;;;;;;;10.23;100.00;92896.84;2089507;28;20103;-86
2021/06/30 01:33:37;;;;;;;0.03;0.03;;;;;;;10.25;100.00;92888.44;2089392;28;20021;-86
2021/06/30 01:34:38;;;;;;;0.52;0.10;;;;;;;10.22;100.00;92891.91;2081787;28;20017;-87
2021/06/30 01:35:39;;;;;;;0.10;0.10;;;;;;;10.16;100.00;92894.34;2093711;28;20052;-86
2021/06/30 01:36:53;;;;;;;0.10;0.10;;;;;;;10.19;100.00;92898.84;2100935;28;20380;-87
2021/06/30 01:37:55;;;;;;;0.10;0.10;;;;;;;10.16;100.00;92906.94;2096394;28;20028;-86
2021/06/30 01:38:55;;;;;;;1.27;0.20;;;;;;;10.20;100.00;92904.94;2082211;28;20459;-87
2021/06/30 01:39:56;;;;;;;0.10;0.10;;;;;;;10.20;100.00;92907.63;2088378;28;20028;-86
2021/06/30 01:40:57;;;;;;;0.10;0.10;;;;;;;10.20;100.00;92907.63;2081374;28;20083;-87
2021/06/30 01:41:58;;;;;;;0.63;0.10;;;;;;;10.17;100.00;92897.75;2089364;28;20078;-87
2021/06/30 01:42:59;;;;;;;0.40;0.10;;;;;;;10.18;100.00;92896.56;2089793;28;20024;-87
2021/06/30 01:44:00;;;;;;;0.17;0.17;;;;;;;10.15;100.00;92898.19;2081384;28;20474;-87
2021/06/30 01:45:01;;;;;;;0.43;0.20;;;;;;;10.17;100.00;92895.09;2089177;28;20017;-87
2021/06/30 01:46:02;;;;;;;0.10;0.10;;;;;;;10.16;100.00;92898.94;2089334;28;20040;-87
2021/06/30 01:47:03;;;;;;;0.10;0.10;;;;;;;10.25;100.00;92885.75;2073941;28;20037;-86
2021/06/30 01:48:04;;;;;;;0.75;0.35;;;;;;;10.29;100.00;92891.78;2080969;28;20091;-86
2021/06/30 01:49:05;;;;;;;0.90;0.20;;;;;;;10.25;100.00;92880.41;2089320;28;20503;-87
2021/06/30 01:50:08;;;;;;;0.10;0.05;;;;;;;10.25;100.00;92880.41;2106108;28;20089;-87
2021/06/30 01:51:08;;;;;;;0.43;0.10;;;;;;;10.18;100.00;92875.22;2097788;28;20088;-87
2021/06/30 01:52:14;;;;;;;1.35;0.15;;;;;;;10.17;100.00;92879.06;2088904;28;20135;-86
2021/06/30 01:53:17;;;;;;;1.20;0.10;;;;;;;10.19;100.00;92884.75;2098312;28;20025;-87
2021/06/30 01:54:19;;;;;;;1.15;0.30;;;;;;;10.01;100.00;92877.91;2105929;28;20035;-87
2021/06/30 01:55:20;;;;;;;0.70;0.20;;;;;;;10.01;100.00;92879.81;2105867;28;20103;-85
2021/06/30 01:56:24;;;;;;;0.10;0.10;;;;;;;9.88;100.00;92882.41;2097444;28;20469;-87
2021/06/30 01:57:25;;;;;;;0.20;0.20;;;;;;;9.96;100.00;92881.06;2102826;28;20028;-86
2021/06/30 01:58:26;;;;;;;0.65;0.20;;;;;;;9.89;100.00;92877.81;2105985;28;20070;-87
2021/06/30 01:59:27;;;;;;;0.47;0.20;;;;;;;9.85;100.00;92880.56;2106314;28;20028;-87
2021/06/30 02:00:27;;;;;;;0.10;0.10;;;;;;;9.90;100.00;92884.66;2103382;28;20043;-85
2021/06/30 02:01:29;;;;;;;0.10;0.10;;;;;;;9.90;100.00;92880.06;2097323;28;20020;-86
2021/06/30 02:02:30;;;;;;;0.20;0.20;;;;;;;9.93;100.00;92879.25;2097593;28;20417;-86
2021/06/30 02:03:31;;;;;;;0.10;0.10;;;;;;;9.89;100.00;92878.56;2097240;28;20500;-87
2021/06/30 02:04:35;;;;;;;0.20;0.20;;;;;;;9.91;100.00;92873.53;2097127;28;20027;-86
2021/06/30 02:05:36;;;;;;;0.28;0.25;;;;;;;9.90;100.00;92872.06;2097809;28;20027;-87
2021/06/30 02:06:41;;;;;;;0.30;0.22;;;;;;;9.79;100.00;92872.31;2105814;28;20016;-87
2021/06/30 02:07:44;;;;;;;1.77;0.20;;;;;;;9.77;100.00;92873.88;2098894;28;20036;-87
2021/06/30 02:08:45;;;;;;;0.13;0.10;;;;;;;9.66;100.00;92868.00;2097440;28;20650;-86
2021/06/30 02:09:45;;;;;;;0.70;0.20;;;;;;;9.74;100.00;92872.03;2103601;28;20077;-86
2021/06/30 02:10:46;;;;;;;0.10;0.10;;;;;;;9.76;100.00;92872.38;2095061;28;20016;-87
2021/06/30 02:11:47;;;;;;;0.30;0.20;;;;;;;9.77;100.00;92877.28;2080755;28;20026;-86
2021/06/30 02:12:48;;;;;;;0.20;0.20;;;;;;;9.79;100.00;92874.22;2080953;28;20062;-86
2021/06/30 02:13:49;;;;;;;0.10;0.10;;;;;;;9.81;100.00;92874.56;2097558;28;20031;-86
2021/06/30 02:14:49;;;;;;;0.20;0.20;;;;;;;9.77;100.00;92879.97;2114385;28;20034;-87
2021/06/30 02:15:50;;;;;;;0.10;0.10;;;;;;;9.94;100.00;92874.66;2097384;28;20040;-87
2021/06/30 02:16:51;;;;;;;1.60;0.20;;;;;;;9.89;100.00;92878.56;2080382;28;20500;-87
2021/06/30 02:17:53;;;;;;;0.10;0.10;;;;;;;9.89;100.00;92875.91;2082322;28;20049;-87
2021/06/30 02:18:54;;;;;;;1.17;0.30;;;;;;;9.89;100.00;92872.47;2096469;28;20031;-86
2021/06/30 02:19:55;;;;;;;0.45;0.30;;;;;;;9.99;100.00;92874.13;2105739;28;20031;-86
2021/06/30 02:20:55;;;;;;;0.70;0.32;;;;;;;9.85;100.00;92872.56;2096482;28;20017;-87
2021/06/30 02:21:56;;;;;;;3.13;0.40;;;;;;;9.78;100.00;92873.47;2080828;28;20029;-86
2021/06/30 02:22:57;;;;;;;0.10;0.10;;;;;;;9.85;100.00;92867.22;2088627;28;20036;-87
2021/06/30 02:23:59;;;;;;;0.80;0.20;;;;;;;9.80;100.00;92860.47;2089628;28;20027;-86
2021/06/30 02:25:00;;;;;;;0.95;0.20;;;;;;;9.88;100.00;92863.72;2088998;28;20108;-86
2021/06/30 02:26:00;;;;;;;0.38;0.38;;;;;;;9.87;100.00;92859.53;2097297;28;20032;-86
2021/06/30 02:27:01;;;;;;;0.10;0.10;;;;;;;9.81;100.00;92858.53;2105729;28;20442;-86
2021/06/30 02:28:02;;;;;;;0.25;0.17;;;;;;;9.69;100.00;92856.53;2097615;28;20029;-86
2021/06/30 02:29:04;;;;;;;0.52;0.20;;;;;;;9.70;100.00;92860.69;2088704;28;20116;-86
2021/06/30 02:30:11;;;;;;;0.15;0.15;;;;;;;9.66;100.00;92852.00;2073060;28;20050;-86
2021/06/30 02:31:12;;;;;;;1.65;0.20;;;;;;;9.71;100.00;92848.88;2098247;28;20025;-87
2021/06/30 02:32:13;;;;;;;0.20;0.20;;;;;;;9.71;100.00;92849.63;2088947;28;20531;-86
2021/06/30 02:33:13;;;;;;;0.10;0.10;;;;;;;9.76;100.00;92849.13;2088976;28;20021;-86
2021/06/30 02:34:14;;;;;;;0.43;0.20;;;;;;;9.59;100.00;92856.34;2088966;28;20025;-86
2021/06/30 02:35:18;;;;;;;0.10;0.10;;;;;;;9.54;100.00;92856.84;2096860;28;20024;-86
2021/06/30 02:36:20;;;;;;;0.10;0.10;;;;;;;9.58;100.00;92852.19;2105626;28;20537;-87
2021/06/30 02:37:20;;;;;;;0.20;0.20;;;;;;;9.49;100.00;92862.69;2089044;28;20123;-86
2021/06/30 02:38:21;;;;;;;0.30;0.30;;;;;;;9.35;100.00;92863.00;2097628;28;20027;-87
2021/06/30 02:39:22;;;;;;;0.15;0.15;;;;;;;9.44;100.00;92852.50;2105920;28;20059;-87
2021/06/30 02:40:25;;;;;;;0.20;0.20;;;;;;;9.44;100.00;92849.84;2089001;28;21111;-87
2021/06/30 02:41:26;;;;;;;0.25;0.20;;;;;;;9.49;100.00;92851.25;2089278;28;20047;-88
2021/06/30 02:42:26;;;;;;;0.35;0.20;;;;;;;9.56;100.00;92854.50;2089016;28;20020;-88
2021/06/30 02:43:27;;;;;;;0.20;0.20;;;;;;;9.71;100.00;92854.19;2077621;28;20414;-87
2021/06/30 02:44:28;;;;;;;0.10;0.10;;;;;;;9.68;100.00;92863.78;2084435;28;20024;-86
2021/06/30 02:45:28;;;;;;;0.35;0.20;;;;;;;9.60;100.00;92870.44;2097264;28;20545;-87
2021/06/30 02:46:29;;;;;;;1.00;0.10;;;;;;;9.41;100.00;92871.25;2085319;28;20605;-87
2021/06/30 02:47:30;;;;;;;0.22;0.22;;;;;;;9.46;100.00;92858.16;2080302;28;20045;-86
2021/06/30 02:48:31;;;;;;;0.20;0.20;;;;;;;9.42;100.00;92862.06;2080788;28;20049;-86
2021/06/30 02:49:31;;;;;;;0.40;0.20;;;;;;;9.38;100.00;92872.81;2089035;28;20490;-86
2021/06/30 02:50:32;;;;;;;0.20;0.20;;;;;;;9.36;100.00;92869.81;2084627;28;20498;-87
2021/06/30 02:51:33;;;;;;;0.43;0.20;;;;;;;9.42;100.00;92878.09;2097349;28;20028;-87
2021/06/30 02:52:34;;;;;;;0.30;0.20;;;;;;;9.47;100.00;92869.59;2096905;28;20047;-87
2021/06/30 02:53:34;;;;;;;0.30;0.22;;;;;;;9.37;100.00;92863.31;2096799;28;20021;-86
2021/06/30 02:54:35;;;;;;;0.20;0.20;;;;;;;9.39;100.00;92862.88;2092089;28;20032;-86
2021/06/30 02:55:36;;;;;;;0.30;0.30;;;;;;;9.34;100.00;92869.47;2095801;28;20052;-86
2021/06/30 02:56:36;;;;;;;0.20;0.20;;;;;;;9.36;100.00;92864.50;2087791;28;20559;-87
2021/06/30 02:57:37;;;;;;;0.47;0.35;;;;;;;9.32;100.00;92877.91;2079508;28;20474;-87
2021/06/30 02:58:38;;;;;;;0.70;0.30;;;;;;;9.29;100.00;92877.97;2079595;28;20423;-87
2021/06/30 02:59:39;;;;;;;2.00;0.30;;;;;;;9.18;100.00;92874.78;2095978;28;20051;-86
2021/06/30 03:00:39;;;;;;;0.45;0.35;;;;;;;9.24;100.00;92881.13;2105101;28;20052;-87
2021/06/30 03:01:40;;;;;;;0.30;0.30;;;;;;;9.30;100.00;92874.13;2097301;28;20082;-86
2021/06/30 03:02:41;;;;;;;0.60;0.30;;;;;;;9.17;100.00;92875.91;2097185;28;20028;-87
2021/06/30 03:03:41;;;;;;;0.50;0.30;;;;;;;9.18;100.00;92880.84;2091867;28;20052;-86
2021/06/30 03:04:42;;;;;;;0.98;0.20;;;;;;;9.19;100.00;92876.28;2097980;28;20078;-87
2021/06/30 03:05:43;;;;;;;1.98;0.32;;;;;;;9.23;100.00;92884.94;2105440;28;20507;-87
2021/06/30 03:06:43;;;;;;;0.40;0.20;;;;;;;9.18;100.00;92883.53;2097104;28;20033;-87
2021/06/30 03:07:45;;;;;;;0.20;0.20;;;;;;;9.26;100.00;92876.09;2097190;28;20054;-86
2021/06/30 03:08:47;;;;;;;0.70;0.35;;;;;;;9.27;100.00;92878.38;2089060;28;20021;-85
2021/06/30 03:09:48;;;;;;;0.25;0.25;;;;;;;9.32;100.00;92879.81;2098876;28;20055;-87
2021/06/30 03:10:49;;;;;;;0.20;0.20;;;;;;;9.24;100.00;92873.88;2090470;28;20024;-87
2021/06/30 03:11:50;;;;;;;0.20;0.20;;;;;;;9.28;100.00;92868.47;2090244;28;20024;-86
2021/06/30 03:12:51;;;;;;;2.28;0.60;;;;;;;9.28;100.00;92861.22;2084429;28;20390;-86
2021/06/30 03:13:51;;;;;;;0.40;0.30;;;;;;;9.17;100.00;92868.66;2097046;28;20031;-86
2021/06/30 03:14:52;;;;;;;0.20;0.20;;;;;;;9.20;100.00;92867.09;2098563;28;20021;-86
2021/06/30 03:15:53;;;;;;;1.45;0.20;;;;;;;9.17;100.00;92866.00;2097049;28;20440;-86
2021/06/30 03:16:53;;;;;;;0.20;0.20;;;;;;;9.12;100.00;92860.41;2099863;28;20102;-86
2021/06/30 03:17:54;;;;;;;1.65;0.22;;;;;;;9.12;100.00;92861.16;2107066;28;20104;-87
2021/06/30 03:18:55;;;;;;;3.35;0.30;;;;;;;9.11;100.00;92862.31;2098503;28;20027;-86
2021/06/30 03:19:55;;;;;;;0.30;0.30;;;;;;;9.08;100.00;92866.56;2098868;28;20499;-86
2021/06/30 03:20:56;;;;;;;0.20;0.20;;;;;;;9.10;100.00;92860.84;2098644;28;20066;-86
2021/06/30 03:21:57;;;;;;;0.73;0.20;;;;;;;9.05;100.00;92871.97;2107127;28;20074;-86
2021/06/30 03:22:58;;;;;;;0.65;0.20;;;;;;;9.05;100.00;92867.41;2098511;28;20023;-87
2021/06/30 03:23:58;;;;;;;1.10;0.30;;;;;;;9.03;100.00;92861.72;2081980;28;20387;-87
2021/06/30 03:25:00;;;;;;;1.10;0.20;;;;;;;9.04;100.00;92873.13;2097974;28;20029;-86
2021/06/30 03:26:00;;;;;;;1.13;0.20;;;;;;;9.10;100.00;92870.75;2090362;28;20075;-86
2021/06/30 03:27:01;;;;;;;0.20;0.20;;;;;;;9.10;100.00;92876.84;2090322;28;20489;-87
2021/06/30 03:28:02;;;;;;;0.20;0.20;;;;;;;9.06;100.00;92876.16;2082459;28;20509;-86
2021/06/30 03:29:03;;;;;;;0.20;0.20;;;;;;;9.01;100.00;92879.28;2098117;28;20552;-86
2021/06/30 03:30:06;;;;;;;0.43;0.20;;;;;;;8.98;100.00;92877.44;2098806;28;20361;-87
2021/06/30 03:31:07;;;;;;;0.65;0.35;;;;;;;8.99;100.00;92885.03;2098797;28;20031;-87
2021/06/30 03:32:08;;;;;;;0.20;0.20;;;;;;;8.94;100.00;92880.16;2090826;28;20055;-87
2021/06/30 03:33:09;;;;;;;2.03;0.25;;;;;;;8.96;100.00;92885.88;2095621;28;20519;-86
2021/06/30 03:34:09;;;;;;;0.73;0.30;;;;;;;8.97;100.00;92881.28;2098894;28;20048;-87
2021/06/30 03:35:10;;;;;;;0.55;0.20;;;;;;;8.99;100.00;92893.03;2098672;28;20032;-87
2021/06/30 03:36:11;;;;;;;1.63;0.30;;;;;;;9.01;100.00;92887.28;2107403;28;20032;-87
2021/06/30 03:37:12;;;;;;;2.08;0.30;;;;;;;8.98;100.00;92888.84;2100474;28;20511;-87
2021/06/30 03:38:12;;;;;;;1.65;0.20;;;;;;;9.01;100.00;92881.97;2084103;28;20018;-86
2021/06/30 03:39:13;;;;;;;0.20;0.20;;;;;;;9.01;100.00;92888.03;2089835;28;20028;-86
2021/06/30 03:40:14;;;;;;;0.30;0.30;;;;;;;9.03;100.00;92884.97;2087613;28;20035;-86
2021/06/30 03:41:15;;;;;;;0.47;0.30;;;;;;;9.13;100.00;92875.25;2094492;28;20024;-86
2021/06/30 03:42:16;;;;;;;0.10;0.10;;;;;;;9.15;100.00;92875.59;2089084;28;20497;-86
2021/06/30 03:43:16;;;;;;;0.30;0.30;;;;;;;9.12;100.00;92882.50;2097123;28;20028;-86
2021/06/30 03:44:17;;;;;;;0.20;0.20;;;;;;;9.17;100.00;92882.00;2080942;28;20040;-87
2021/06/30 03:45:18;;;;;;;0.45;0.20;;;;;;;9.19;100.00;92876.28;2074656;28;20021;-86
2021/06/30 03:46:18;;;;;;;0.45;0.38;;;;;;;9.18;100.00;92874.78;2078933;28;20045;-86
2021/06/30 03:47:19;;;;;;;0.20;0.20;;;;;;;9.17;100.00;92883.91;2098547;28;20059;-87
2021/06/30 03:48:20;;;;;;;0.30;0.30;;;;;;;9.21;100.00;92881.94;2108915;28;20020;-86
2021/06/30 03:49:20;;;;;;;0.25;0.25;;;;;;;9.17;100.00;92883.91;2113078;28;20061;-86
2021/06/30 03:50:21;;;;;;;0.95;0.20;;;;;;;9.19;100.00;92879.69;2100998;28;20118;-87
2021/06/30 03:51:22;;;;;;;1.45;0.30;;;;;;;9.24;100.00;92883.78;2104340;28;20083;-86
2021/06/30 03:52:22;;;;;;;0.10;0.10;;;;;;;9.22;100.00;92878.88;2105179;28;20484;-86
2021/06/30 03:53:23;;;;;;;1.33;0.30;;;;;;;9.28;100.00;92882.53;2093680;28;20024;-85
2021/06/30 03:54:25;;;;;;;0.30;0.30;;;;;;;9.33;100.00;92881.31;2095648;28;20025;-86
2021/06/30 03:55:25;;;;;;;0.20;0.20;;;;;;;9.45;100.00;92874.59;2085022;28;20021;-86
2021/06/30 03:56:26;;;;;;;0.20;0.20;;;;;;;9.49;100.00;92880.59;2103870;28;20024;-86
2021/06/30 03:57:27;;;;;;;0.40;0.20;;;;;;;9.43;100.00;92888.31;2119289;27;20043;-87
2021/06/30 03:58:27;;;;;;;1.25;0.30;;;;;;;9.46;100.00;92882.16;2101602;28;20024;-86
2021/06/30 03:59:28;;;;;;;0.30;0.20;;;;;;;9.55;100.00;92873.59;2102929;28;20035;-86
2021/06/30 04:00:29;;;;;;;0.28;0.22;;;;;;;9.53;100.00;92881.28;2093465;28;20044;-86
2021/06/30 04:01:30;;;;;;;0.63;0.32;;;;;;;9.62;100.00;92886.81;2095026;28;20017;-86
2021/06/30 04:02:30;;;;;;;1.65;0.30;;;;;;;9.59;100.00;92880.38;2099464;28;20024;-85
2021/06/30 04:03:31;;;;;;;1.85;0.40;;;;;;;9.56;100.00;92875.84;2089822;28;20021;-87
2021/06/30 04:04:32;;;;;;;0.20;0.20;;;;;;;9.52;100.00;92883.19;2099794;28;20020;-86
2021/06/30 04:05:35;;;;;;;0.40;0.40;;;;;;;9.60;100.00;92883.78;2101598;28;20102;-86
2021/06/30 04:06:37;;;;;;;0.30;0.30;;;;;;;9.69;100.00;92880.53;2098798;28;20023;-86
2021/06/30 04:07:38;;;;;;;0.40;0.40;;;;;;;9.71;100.00;92881.63;2098337;28;20023;-86
2021/06/30 04:08:39;;;;;;;0.35;0.30;;;;;;;9.64;100.00;92884.44;2089768;28;20021;-86
2021/06/30 04:09:39;;;;;;;3.13;0.38;;;;;;;9.60;100.00;92878.44;2087235;28;20028;-86
2021/06/30 04:10:40;;;;;;;0.25;0.20;;;;;;;9.58;100.00;92881.53;2083147;28;20522;-86
2021/06/30 04:11:41;;;;;;;0.30;0.30;;;;;;;9.66;100.00;92884.81;2082933;28;20036;-86
2021/06/30 04:12:42;;;;;;;0.38;0.30;;;;;;;9.63;100.00;92880.28;2098271;28;20438;-86
2021/06/30 04:13:43;;;;;;;0.45;0.22;;;;;;;9.68;100.00;92879.03;2097987;28;20025;-86
2021/06/30 04:14:44;;;;;;;0.20;0.20;;;;;;;9.72;100.00;92877.78;2089740;28;20070;-87
2021/06/30 04:15:45;;;;;;;2.30;0.20;;;;;;;9.75;100.00;92876.97;2089738;28;20025;-86
2021/06/30 04:16:46;;;;;;;0.25;0.25;;;;;;;9.75;100.00;92881.56;2099695;28;20507;-86
2021/06/30 04:17:47;;;;;;;0.40;0.20;;;;;;;9.75;100.00;92884.25;2107774;28;20488;-87
2021/06/30 04:18:48;;;;;;;0.82;0.20;;;;;;;9.78;100.00;92873.47;2106485;28;20472;-87
2021/06/30 04:19:48;;;;;;;0.20;0.20;;;;;;;9.78;100.00;92891.41;2108069;28;20020;-86
2021/06/30 04:20:49;;;;;;;2.20;0.32;;;;;;;9.82;100.00;92879.47;2099708;28;20100;-87
2021/06/30 04:21:50;;;;;;;0.45;0.45;;;;;;;9.81;100.00;92877.22;2089612;28;20028;-87
2021/06/30 04:22:51;;;;;;;0.45;0.40;;;;;;;9.77;100.00;92877.28;2089682;28;20107;-85
2021/06/30 04:23:53;;;;;;;1.08;0.30;;;;;;;9.85;100.00;92880.56;2107448;28;20027;-86
2021/06/30 04:24:54;;;;;;;0.28;0.25;;;;;;;9.78;100.00;92878.03;2099870;28;20028;-87
2021/06/30 04:25:55;;;;;;;1.70;0.30;;;;;;;9.72;100.00;92871.72;2099477;28;20103;-87
2021/06/30 04:26:55;;;;;;;0.63;0.25;;;;;;;9.72;100.00;92872.47;2092798;28;20024;-86
2021/06/30 04:27:56;;;;;;;0.25;0.25;;;;;;;9.79;100.00;92880.31;2091218;28;20025;-86
2021/06/30 04:28:57;;;;;;;0.20;0.20;;;;;;;9.81;100.00;92877.97;2090877;28;20053;-86
2021/06/30 04:30:00;;;;;;;0.40;0.30;;;;;;;9.76;100.00;92878.47;2098121;28;20020;-86
2021/06/30 04:31:01;;;;;;;0.28;0.20;;;;;;;9.69;100.00;92881.28;2097822;28;20032;-86
2021/06/30 04:32:02;;;;;;;0.32;0.22;;;;;;;9.81;100.00;92890.56;2098083;28;20028;-86
2021/06/30 04:33:03;;;;;;;0.20;0.20;;;;;;;9.81;100.00;92888.66;2107912;28;20024;-86
2021/06/30 04:34:05;;;;;;;2.08;0.20;;;;;;;9.81;100.00;92890.56;2099390;28;20032;-86
2021/06/30 04:35:07;;;;;;;0.40;0.28;;;;;;;9.84;100.00;92887.06;2089553;28;20060;-86
2021/06/30 04:36:08;;;;;;;0.20;0.20;;;;;;;9.80;100.00;92889.81;2082827;28;20033;-87
2021/06/30 04:37:09;;;;;;;0.10;0.10;;;;;;;9.89;100.00;92886.56;2099407;28;20489;-86
2021/06/30 04:38:10;;;;;;;0.50;0.50;;;;;;;9.90;100.00;92888.06;2098819;28;20032;-85
2021/06/30 04:39:11;;;;;;;1.13;0.80;;;;;;;9.92;100.00;92882.31;2098868;28;20036;-86
2021/06/30 04:40:12;;;;;;;2.25;0.98;;;;;;;9.98;100.00;92881.41;2114002;28;20027;-86
2021/06/30 04:41:12;;;;;;;0.80;0.80;;;;;;;9.99;100.00;92885.56;2098690;28;20768;-86
2021/06/30 04:42:13;;;;;;;0.70;0.70;;;;;;;10.02;100.00;92884.75;2105320;28;20083;-85
2021/06/30 04:43:14;;;;;;;0.40;0.40;;;;;;;10.02;100.00;92884.00;2099267;28;20035;-86
2021/06/30 04:44:15;;;;;;;0.35;0.35;;;;;;;9.98;100.00;92888.66;2088512;28;20111;-86
2021/06/30 04:45:15;;;;;;;0.43;0.43;;;;;;;9.91;100.00;92880.81;2090979;28;20033;-87
2021/06/30 04:46:16;;;;;;;2.05;0.30;;;;;;;9.94;100.00;92885.31;2104811;28;20126;-86